Time;durP1;ratioP1;P1;durP2;ratioP2;P2;SDS_P1;SDS_P2;PMS_P1;PMS_P2;Temp;Humidity;BMP_temperature;BMP_pressure;BME280_temperature;BME280_humidity;BME280_pressure;Samples;Min_cycle;Max_cycle;Signal;HPM_P1;HPM_P2
2021/07/17 00:00:39;;;;;;;;;;;;;;;28.80;36.33;100071.56;5099161;28;791;-22
2021/07/17 00:03:05;;;;;;;;;;;;;;;28.95;36.47;100071.34;5099178;28;875;-23
2021/07/17 00:05:30;;;;;;;;;;;;;;;29.03;36.63;100070.28;5099164;28;760;-23
2021/07/17 00:07:57;;;;;;;;;;;;;;;29.03;36.71;100072.19;5098578;28;819;-25
2021/07/17 00:10:23;;;;;;;;;;;;;;;28.97;36.23;100071.16;5098362;28;1992;-25
2021/07/17 00:12:49;;;;;;;;;;;;;;;28.98;36.30;100061.16;5098979;28;1006;-24
2021/07/17 00:15:14;;;;;;;;;;;;;;;28.79;36.45;100059.09;5098537;28;851;-24
2021/07/17 00:17:40;;;;;;;;;;;;;;;28.87;36.30;100063.44;5098990;28;779;-22
2021/07/17 00:20:09;;;;;;;;;;;;;;;28.96;36.50;100056.75;5098818;28;728;-24
2021/07/17 00:22:34;;;;;;;;;;;;;;;28.95;37.01;100055.09;5098269;28;886;-27
2021/07/17 00:25:00;;;;;;;;;;;;;;;28.98;37.01;100069.28;5098523;28;878;-23
2021/07/17 00:27:25;;;;;;;;;;;;;;;29.06;37.05;100060.94;5083656;28;938;-23
2021/07/17 00:29:50;;;;;;;;;;;;;;;29.05;36.57;100051.97;5078090;28;1973;-23
2021/07/17 00:32:16;;;;;;;;;;;;;;;28.94;36.44;100044.47;5078430;28;819;-23
2021/07/17 00:34:41;;;;;;;;;;;;;;;29.04;36.65;100046.75;5078251;28;767;-23
2021/07/17 00:37:06;;;;;;;;;;;;;;;28.90;36.41;100048.63;5077777;28;837;-23
2021/07/17 00:39:31;;;;;;;;;;;;;;;28.95;36.43;100038.84;5078303;28;811;-24
2021/07/17 00:41:57;;;;;;;;;;;;;;;28.99;36.66;100050.13;5088405;28;943;-23
2021/07/17 00:44:22;;;;;;;;;;;;;;;29.03;36.80;100043.22;5098244;28;859;-23
2021/07/17 00:46:47;;;;;;;;;;;;;;;28.97;36.76;100041.38;5098159;28;984;-24
2021/07/17 00:49:12;;;;;;;;;;;;;;;28.98;36.38;100042.22;5079456;28;1905;-23
2021/07/17 00:51:38;;;;;;;;;;;;;;;29.00;36.63;100042.81;5098082;28;1260;-23
2021/07/17 00:54:03;;;;;;;;;;;;;;;28.87;36.40;100041.78;5097909;28;875;-24
2021/07/17 00:56:30;;;;;;;;;;;;;;;28.97;36.38;100041.38;5079311;28;919;-24
2021/07/17 00:58:58;;;;;;;;;;;;;;;28.98;36.90;100039.50;5097476;28;1404;-24
2021/07/17 01:01:23;;;;;;;;;;;;;;;29.07;36.63;100039.06;5097926;28;811;-25
2021/07/17 01:03:49;;;;;;;;;;;;;;;29.07;36.79;100030.94;5079843;28;803;-23
2021/07/17 01:06:14;;;;;;;;;;;;;;;28.91;36.33;100036.78;5079533;28;820;-27
2021/07/17 01:08:39;;;;;;;;;;;;;;;29.00;36.68;100035.53;5097230;28;1962;-25
2021/07/17 01:11:05;;;;;;;;;;;;;;;28.94;36.59;100026.38;5096954;28;947;-23
2021/07/17 01:13:30;;;;;;;;;;;;;;;29.01;36.57;100025.53;5097909;28;803;-24
2021/07/17 01:15:55;;;;;;;;;;;;;;;29.04;36.70;100025.94;5097547;28;747;-23
2021/07/17 01:18:20;;;;;;;;;;;;;;;29.09;37.00;100023.41;5078943;28;827;-24
2021/07/17 01:20:46;;;;;;;;;;;;;;;29.06;37.13;100018.41;5079593;28;765;-25
2021/07/17 01:23:11;;;;;;;;;;;;;;;29.06;37.13;100023.03;5079554;28;775;-23
2021/07/17 01:25:36;;;;;;;;;;;;;;;29.09;37.13;100020.69;5096832;28;1024;-23
2021/07/17 01:28:02;;;;;;;;;;;;;;;28.87;36.83;100017.41;5096086;28;997;-23
2021/07/17 01:30:29;;;;;;;;;;;;;;;28.98;37.02;100015.13;5097441;28;1959;-24
2021/07/17 01:32:54;;;;;;;;;;;;;;;28.95;36.48;100019.91;5097385;28;780;-24
2021/07/17 01:35:19;;;;;;;;;;;;;;;29.01;36.41;100009.28;5097364;28;756;-24
2021/07/17 01:37:45;;;;;;;;;;;;;;;28.91;36.90;100002.41;5097103;28;853;-26
2021/07/17 01:40:12;;;;;;;;;;;;;;;28.93;36.54;100005.72;5096984;28;747;-24
2021/07/17 01:42:37;;;;;;;;;;;;;;;29.02;36.51;100006.38;5097085;28;950;-23
2021/07/17 01:45:06;;;;;;;;;;;;;;;28.99;36.87;100011.38;5097288;28;791;-24
2021/07/17 01:47:32;;;;;;;;;;;;;;;29.03;37.05;100009.91;5096797;28;1298;-22
2021/07/17 01:49:59;;;;;;;;;;;;;;;29.01;37.45;100020.13;5097383;28;1913;-24
2021/07/17 01:52:24;;;;;;;;;;;;;;;29.08;37.15;100012.78;5080924;28;1206;-23
2021/07/17 01:54:49;;;;;;;;;;;;;;;28.90;36.90;100017.00;5076546;28;815;-23
2021/07/17 01:57:15;;;;;;;;;;;;;;;28.87;37.09;100014.72;5089675;28;955;-22
2021/07/17 01:59:40;;;;;;;;;;;;;;;29.00;37.16;100015.72;5096887;28;818;-22
2021/07/17 02:02:06;;;;;;;;;;;;;;;28.84;37.07;100013.25;5096741;28;824;-22
2021/07/17 02:04:31;;;;;;;;;;;;;;;28.89;37.04;100015.34;5097152;28;894;-22
2021/07/17 02:06:57;;;;;;;;;;;;;;;28.96;37.34;100013.44;5096512;28;807;-23
2021/07/17 02:09:22;;;;;;;;;;;;;;;28.88;36.80;100010.16;5096883;28;1890;-23
2021/07/17 02:11:47;;;;;;;;;;;;;;;28.95;37.33;100013.63;5096681;28;947;-24
2021/07/17 02:14:12;;;;;;;;;;;;;;;28.89;36.88;100015.34;5096703;28;736;-23
2021/07/17 02:16:38;;;;;;;;;;;;;;;28.94;36.83;100012.00;5096952;28;744;-23
2021/07/17 02:19:06;;;;;;;;;;;;;;;28.94;37.02;100015.53;5096507;28;886;-22
2021/07/17 02:21:32;;;;;;;;;;;;;;;28.85;36.81;100017.63;5078725;28;787;-23
2021/07/17 02:23:57;;;;;;;;;;;;;;;29.01;37.01;100018.22;5097186;28;736;-23
2021/07/17 02:26:22;;;;;;;;;;;;;;;28.91;37.15;100020.53;5096620;28;994;-23
2021/07/17 02:28:47;;;;;;;;;;;;;;;28.86;36.97;100021.19;5096405;28;1897;-25
2021/07/17 02:31:13;;;;;;;;;;;;;;;28.92;37.27;100019.47;5096732;28;855;-23
2021/07/17 02:33:38;;;;;;;;;;;;;;;28.85;36.68;100014.94;5096821;28;772;-24
2021/07/17 02:36:03;;;;;;;;;;;;;;;28.92;37.19;100016.78;5096534;28;829;-23
2021/07/17 02:38:29;;;;;;;;;;;;;;;28.88;37.23;100020.97;5098663;28;932;-23
2021/07/17 02:40:54;;;;;;;;;;;;;;;28.81;37.17;100002.03;5100487;28;946;-23
2021/07/17 02:43:20;;;;;;;;;;;;;;;28.89;37.39;100003.66;5100573;28;886;-22
2021/07/17 02:45:45;;;;;;;;;;;;;;;28.81;36.96;100005.56;5100135;28;808;-22
2021/07/17 02:48:10;;;;;;;;;;;;;;;28.95;37.38;100011.78;5100429;28;1111;-22
2021/07/17 02:50:36;;;;;;;;;;;;;;;28.87;37.33;100009.31;5099140;28;1975;-23
2021/07/17 02:53:01;;;;;;;;;;;;;;;28.90;37.31;100010.72;5080314;28;823;-24
2021/07/17 02:55:26;;;;;;;;;;;;;;;29.02;37.05;99995.53;5080179;28;808;-24
2021/07/17 02:57:51;;;;;;;;;;;;;;;28.87;36.86;100003.03;5097639;28;892;-23
2021/07/17 03:00:17;;;;;;;;;;;;;;;28.96;37.06;99999.06;5100314;28;756;-23
2021/07/17 03:02:42;;;;;;;;;;;;;;;28.89;36.83;100000.97;5100257;28;819;-23
2021/07/17 03:05:08;;;;;;;;;;;;;;;28.95;36.56;100000.94;5100294;28;751;-22
2021/07/17 03:07:33;;;;;;;;;;;;;;;29.02;36.76;100000.09;5099822;28;979;-23
2021/07/17 03:09:58;;;;;;;;;;;;;;;28.80;36.65;100000.34;5099890;28;1968;-24
2021/07/17 03:12:24;;;;;;;;;;;;;;;28.83;37.25;99998.06;5099401;28;1066;-23
2021/07/17 03:14:49;;;;;;;;;;;;;;;28.70;37.06;99998.94;5100115;28;867;-26
2021/07/17 03:17:14;;;;;;;;;;;;;;;28.87;37.16;100005.75;5099521;28;874;-24
2021/07/17 03:19:40;;;;;;;;;;;;;;;28.93;37.16;100005.72;5099826;28;771;-25
2021/07/17 03:22:05;;;;;;;;;;;;;;;28.38;40.62;100009.59;5099999;28;819;-22
2021/07/17 03:24:31;;;;;;;;;;;;;;;28.41;40.52;100017.28;5099575;28;767;-22
2021/07/17 03:26:57;;;;;;;;;;;;;;;28.27;40.79;100008.34;5099611;28;934;-23
2021/07/17 03:29:22;;;;;;;;;;;;;;;28.42;40.89;100002.75;5099636;28;1960;-25
2021/07/17 03:31:48;;;;;;;;;;;;;;;28.53;40.66;100005.84;5099622;28;775;-23
2021/07/17 03:34:13;;;;;;;;;;;;;;;28.42;41.38;99999.19;5099774;28;798;-22
2021/07/17 03:36:38;;;;;;;;;;;;;;;28.59;40.08;100003.09;5099409;28;816;-22
2021/07/17 03:39:04;;;;;;;;;;;;;;;28.47;41.36;100002.94;5099121;28;808;-22
2021/07/17 03:41:29;;;;;;;;;;;;;;;28.51;41.44;99995.22;5098998;28;946;-23
2021/07/17 03:43:55;;;;;;;;;;;;;;;28.63;40.17;100003.53;5099342;28;799;-23
2021/07/17 03:46:20;;;;;;;;;;;;;;;28.64;40.56;99994.38;5099288;28;767;-23
2021/07/17 03:48:45;;;;;;;;;;;;;;;28.73;39.93;99993.09;5098654;28;1998;-22
2021/07/17 03:51:10;;;;;;;;;;;;;;;28.59;40.68;99991.47;5092675;28;1167;-22
2021/07/17 03:53:36;;;;;;;;;;;;;;;27.62;45.25;99994.34;5078917;28;811;-22
2021/07/17 03:56:01;;;;;;;;;;;;;;;27.02;48.56;99990.44;5081489;28;991;-21
2021/07/17 03:58:26;;;;;;;;;;;;;;;28.29;44.39;99984.63;5099003;28;883;-22
2021/07/17 04:00:51;;;;;;;;;;;;;;;28.51;43.72;99984.41;5098979;28;799;-22
2021/07/17 04:03:17;;;;;;;;;;;;;;;28.55;41.33;99985.66;5098918;28;806;-24
2021/07/17 04:05:42;;;;;;;;;;;;;;;28.75;41.51;99983.91;5099284;28;859;-24
2021/07/17 04:08:08;;;;;;;;;;;;;;;28.74;42.21;99985.81;5098486;28;843;-27
2021/07/17 04:10:33;;;;;;;;;;;;;;;28.73;45.00;99987.69;5098565;28;1953;-30
2021/07/17 04:12:58;;;;;;;;;;;;;;;29.01;43.54;99979.50;5098789;28;994;-29
2021/07/17 04:15:24;;;;;;;;;;;;;;;29.10;42.52;99980.91;5098560;28;744;-28
2021/07/17 04:17:49;;;;;;;;;;;;;;;28.72;44.79;99980.63;5098878;28;752;-30
2021/07/17 04:20:14;;;;;;;;;;;;;;;28.93;42.93;99985.94;5098626;28;795;-27
2021/07/17 04:22:39;;;;;;;;;;;;;;;28.80;41.19;99981.41;5098968;28;803;-27
2021/07/17 04:25:05;;;;;;;;;;;;;;;28.49;41.83;99975.69;5098843;28;748;-25
2021/07/17 04:27:30;;;;;;;;;;;;;;;28.67;41.32;99977.72;5098289;28;983;-25
2021/07/17 04:29:56;;;;;;;;;;;;;;;28.71;41.96;99968.13;5098770;28;1901;-23
2021/07/17 04:32:21;;;;;;;;;;;;;;;28.83;42.67;99976.41;5098689;28;859;-26
2021/07/17 04:34:46;;;;;;;;;;;;;;;28.57;43.80;99971.91;5098242;28;862;-22
2021/07/17 04:37:18;;;;;;;;;;;;;;;28.56;43.79;99970.25;5098385;28;826;-21
2021/07/17 04:39:43;;;;;;;;;;;;;;;28.96;41.61;99974.72;5098526;28;809;-28
2021/07/17 04:42:08;;;;;;;;;;;;;;;29.08;41.06;99977.59;5095552;28;942;-22
2021/07/17 04:44:34;;;;;;;;;;;;;;;29.23;40.70;99980.00;5098304;28;752;-25
2021/07/17 04:46:59;;;;;;;;;;;;;;;29.03;43.10;99970.09;5099718;28;1269;-23
2021/07/17 04:49:24;;;;;;;;;;;;;;;29.15;41.73;99981.09;5118653;28;1902;-23
2021/07/17 04:51:50;;;;;;;;;;;;;;;29.02;40.93;99973.03;5106770;28;952;-22
2021/07/17 04:54:15;;;;;;;;;;;;;;;29.16;40.72;99968.41;5097595;28;780;-23
2021/07/17 04:56:40;;;;;;;;;;;;;;;25.89;49.86;99963.25;5105903;28;923;-22
2021/07/17 04:59:06;;;;;;;;;;;;;;;23.21;58.06;99963.50;5118126;28;676;-21
2021/07/17 05:01:31;;;;;;;;;;;;;;;22.26;59.99;99958.75;5117850;28;854;-24
2021/07/17 05:03:56;;;;;;;;;;;;;;;21.59;60.49;99948.00;5118173;28;814;-22
2021/07/17 05:06:21;;;;;;;;;;;;;;;21.31;60.52;99952.78;5118153;28;744;-24
2021/07/17 05:08:47;;;;;;;;;;;;;;;21.02;60.85;99945.03;5117795;28;1902;-22
2021/07/17 05:11:12;;;;;;;;;;;;;;;21.73;59.05;99949.22;5117315;28;1013;-28
2021/07/17 05:13:37;;;;;;;;;;;;;;;25.32;47.81;99949.66;5118166;28;847;-24
2021/07/17 05:16:02;;;;;;;;;;;;;;;26.70;44.12;99954.09;5118166;28;809;-25
2021/07/17 05:18:28;;;;;;;;;;;;;;;27.45;42.22;99953.38;5117541;28;890;-24
2021/07/17 05:20:53;;;;;;;;;;;;;;;27.77;40.93;99962.78;5117797;28;846;-28
2021/07/17 05:23:18;;;;;;;;;;;;;;;27.91;40.30;99955.53;5117596;28;743;-25
2021/07/17 05:25:44;;;;;;;;;;;;;;;28.10;39.84;99956.56;5118015;28;1001;-27
2021/07/17 05:28:10;;;;;;;;;;;;;;;28.16;39.70;99949.50;5117792;28;990;-24
2021/07/17 05:30:35;;;;;;;;;;;;;;;28.05;40.09;99948.22;5117466;28;1970;-23
2021/07/17 05:33:00;;;;;;;;;;;;;;;28.13;39.38;99950.72;5116889;28;826;-22
2021/07/17 05:35:29;;;;;;;;;;;;;;;28.05;39.69;99949.06;5117559;28;522;-22
2021/07/17 05:37:57;;;;;;;;;;;;;;;28.24;39.19;99950.06;5117120;28;817;-23
2021/07/17 05:40:22;;;;;;;;;;;;;;;28.29;39.57;99946.75;5117905;28;777;-25
2021/07/17 05:42:48;;;;;;;;;;;;;;;28.18;39.74;99950.94;5116952;28;946;-24
2021/07/17 05:45:13;;;;;;;;;;;;;;;28.18;40.11;99950.09;5117245;28;823;-24
2021/07/17 05:47:38;;;;;;;;;;;;;;;28.14;39.96;99959.66;5110287;28;1497;-23
2021/07/17 05:50:04;;;;;;;;;;;;;;;28.06;40.03;99961.53;5097198;28;1913;-25
2021/07/17 05:52:30;;;;;;;;;;;;;;;28.15;39.66;99955.91;5096790;28;1150;-24
2021/07/17 05:54:56;;;;;;;;;;;;;;;28.08;39.97;99958.63;5096689;28;866;-23
2021/07/17 05:57:22;;;;;;;;;;;;;;;28.10;40.00;99953.84;5083640;28;954;-24
2021/07/17 05:59:47;;;;;;;;;;;;;;;28.14;39.85;99954.25;5076478;28;850;-22
2021/07/17 06:02:12;;;;;;;;;;;;;;;28.10;39.89;99961.97;5076295;28;807;-26
2021/07/17 06:04:38;;;;;;;;;;;;;;;28.14;40.07;99957.81;5076543;28;837;-23
2021/07/17 06:07:03;;;;;;;;;;;;;;;28.09;39.93;99957.59;5076436;28;759;-23
2021/07/17 06:09:28;;;;;;;;;;;;;;;28.25;39.74;99964.44;5076694;28;1965;-25
2021/07/17 06:11:54;;;;;;;;;;;;;;;28.09;39.85;99957.59;5085967;28;954;-22
2021/07/17 06:14:19;;;;;;;;;;;;;;;28.19;39.96;99960.72;5096008;28;843;-24
2021/07/17 06:16:44;;;;;;;;;;;;;;;28.14;40.14;99963.22;5097175;28;838;-24
2021/07/17 06:19:10;;;;;;;;;;;;;;;28.32;39.64;99959.03;5096813;28;781;-25
2021/07/17 06:21:35;;;;;;;;;;;;;;;27.74;38.30;99951.34;5096659;28;886;-20
2021/07/17 06:24:01;;;;;;;;;;;;;;;27.94;38.95;99955.94;5096456;28;810;-26
2021/07/17 06:26:26;;;;;;;;;;;;;;;27.96;40.18;99951.16;5095863;28;998;-22
2021/07/17 06:28:51;;;;;;;;;;;;;;;28.32;39.77;99951.75;5096484;28;1905;-29
2021/07/17 06:31:19;;;;;;;;;;;;;;;28.10;40.48;99951.13;5096728;28;795;-20
2021/07/17 06:33:44;;;;;;;;;;;;;;;28.07;40.77;99947.00;5096482;28;750;-22
2021/07/17 06:36:09;;;;;;;;;;;;;;;28.24;40.78;99941.97;5096574;28;834;-23
2021/07/17 06:38:35;;;;;;;;;;;;;;;28.25;40.79;99937.41;5096675;28;755;-23
2021/07/17 06:41:01;;;;;;;;;;;;;;;28.26;41.08;99944.47;5096200;28;954;-22
2021/07/17 06:43:27;;;;;;;;;;;;;;;28.46;40.97;99957.97;5096249;28;812;-20
2021/07/17 06:45:52;;;;;;;;;;;;;;;28.30;41.22;99950.28;5096928;28;831;-25
2021/07/17 06:48:17;;;;;;;;;;;;;;;28.35;41.51;99951.34;5096358;28;1101;-22
2021/07/17 06:50:43;;;;;;;;;;;;;;;28.63;40.88;99952.09;5096220;28;1968;-24
2021/07/17 06:53:08;;;;;;;;;;;;;;;28.58;40.94;99947.34;5096006;28;816;-24
2021/07/17 06:55:34;;;;;;;;;;;;;;;28.53;41.18;99940.94;5096466;28;875;-25
2021/07/17 06:57:59;;;;;;;;;;;;;;;28.52;41.13;99940.09;5095991;28;978;-24
2021/07/17 07:00:24;;;;;;;;;;;;;;;28.42;41.20;99945.94;5096546;28;747;-25
2021/07/17 07:02:49;;;;;;;;;;;;;;;28.46;41.55;99951.75;5095991;28;848;-25
2021/07/17 07:05:15;;;;;;;;;;;;;;;28.28;41.13;99919.94;5096252;28;783;-24
2021/07/17 07:07:40;;;;;;;;;;;;;;;28.33;41.47;99947.19;5096953;28;775;-23
2021/07/17 07:10:07;;;;;;;;;;;;;;;28.37;41.59;99953.84;5096119;28;1901;-22
2021/07/17 07:12:32;;;;;;;;;;;;;;;28.35;41.59;99945.94;5095373;28;958;-23
2021/07/17 07:14:57;;;;;;;;;;;;;;;28.38;41.74;99944.69;5096024;28;755;-20
2021/07/17 07:17:23;;;;;;;;;;;;;;;28.56;41.01;99957.53;5096008;28;808;-24
2021/07/17 07:19:48;;;;;;;;;;;;;;;28.60;41.23;99957.94;5096281;28;760;-27
2021/07/17 07:22:13;;;;;;;;;;;;;;;28.54;41.25;99962.34;5096234;28;836;-23
2021/07/17 07:24:38;;;;;;;;;;;;;;;28.51;41.22;99967.34;5096636;28;748;-27
2021/07/17 07:27:04;;;;;;;;;;;;;;;28.57;41.24;99969.19;5099045;28;947;-25
2021/07/17 07:29:29;;;;;;;;;;;;;;;28.60;41.25;99968.78;5099291;28;1959;-23
2021/07/17 07:31:54;;;;;;;;;;;;;;;28.59;41.28;99970.63;5099795;28;799;-21
2021/07/17 07:34:20;;;;;;;;;;;;;;;28.77;40.85;99968.31;5099260;28;843;-22
2021/07/17 07:36:49;;;;;;;;;;;;;;;28.61;41.22;99970.47;5099276;28;788;-21
2021/07/17 07:39:14;;;;;;;;;;;;;;;28.67;41.03;99972.31;5099415;28;791;-24
2021/07/17 07:41:39;;;;;;;;;;;;;;;28.80;40.68;99970.59;5098852;28;982;-23
2021/07/17 07:44:05;;;;;;;;;;;;;;;28.75;41.13;99968.53;5098922;28;731;-26
2021/07/17 07:46:32;;;;;;;;;;;;;;;28.82;40.64;99965.78;5099497;28;829;-23
2021/07/17 07:48:58;;;;;;;;;;;;;;;28.80;41.07;99973.28;5098812;28;1913;-21
2021/07/17 07:51:23;;;;;;;;;;;;;;;28.78;41.00;99967.28;5091829;28;1114;-24
2021/07/17 07:53:49;;;;;;;;;;;;;;;28.71;41.25;99970.81;5078498;28;803;-24
2021/07/17 07:56:14;;;;;;;;;;;;;;;28.79;40.97;99977.91;5083135;28;982;-22
2021/07/17 07:58:39;;;;;;;;;;;;;;;28.93;40.73;99962.41;5099399;28;846;-23
2021/07/17 08:01:04;;;;;;;;;;;;;;;28.89;40.67;99957.66;5061852;28;1077;-23
2021/07/17 08:03:30;;;;;;;;;;;;;;;28.92;40.80;99971.59;5078996;28;780;-23
2021/07/17 08:05:55;;;;;;;;;;;;;;;28.88;40.82;99972.25;5078430;28;878;-24
2021/07/17 08:08:20;;;;;;;;;;;;;;;28.78;41.01;99978.91;5078311;28;771;-21
2021/07/17 08:10:45;;;;;;;;;;;;;;;28.84;41.05;99972.66;5092006;28;1913;-22
2021/07/17 08:13:11;;;;;;;;;;;;;;;28.99;40.60;99958.06;5099126;28;779;-23
2021/07/17 08:15:36;;;;;;;;;;;;;;;28.81;40.92;99962.25;5098537;28;779;-21
2021/07/17 08:18:02;;;;;;;;;;;;;;;28.80;41.19;99966.00;5099286;28;725;-24
2021/07/17 08:20:27;;;;;;;;;;;;;;;28.87;40.76;99952.47;5097524;28;1476;-24
2021/07/17 08:22:52;;;;;;;;;;;;;;;28.74;41.32;99964.16;5098680;28;771;-23
2021/07/17 08:25:18;;;;;;;;;;;;;;;28.76;41.38;99956.63;5098722;28;811;-23
2021/07/17 08:27:43;;;;;;;;;;;;;;;28.78;41.51;99956.47;5081672;28;1005;-22
2021/07/17 08:30:10;;;;;;;;;;;;;;;28.84;40.93;99964.53;5078344;28;1975;-21
2021/07/17 08:32:36;;;;;;;;;;;;;;;28.70;41.28;99966.47;5078387;28;816;-21
2021/07/17 08:35:01;;;;;;;;;;;;;;;28.76;41.43;99963.94;5077850;28;846;-25
2021/07/17 08:37:26;;;;;;;;;;;;;;;28.84;41.00;99961.81;5078024;28;748;-21
2021/07/17 08:39:52;;;;;;;;;;;;;;;28.75;41.27;99962.28;5087264;28;1516;-25
2021/07/17 08:42:18;;;;;;;;;;;;;;;28.81;41.20;99956.84;5097916;28;943;-23
2021/07/17 08:44:47;;;;;;;;;;;;;;;28.92;40.92;99963.47;5098092;28;868;-24
2021/07/17 08:47:12;;;;;;;;;;;;;;;28.95;41.02;99970.31;5101374;28;1327;-27
2021/07/17 08:49:38;;;;;;;;;;;;;;;29.00;41.05;99964.28;5100098;28;1922;-22
2021/07/17 08:52:03;;;;;;;;;;;;;;;28.93;41.20;99972.41;5100327;28;1236;-25
2021/07/17 08:54:29;;;;;;;;;;;;;;;29.02;40.92;99965.75;5100555;28;803;-27
2021/07/17 08:56:54;;;;;;;;;;;;;;;29.00;40.81;99965.13;5117676;28;1018;-25
2021/07/17 08:59:19;;;;;;;;;;;;;;;28.96;40.87;99969.28;5118354;28;790;-26
2021/07/17 09:01:45;;;;;;;;;;;;;;;28.99;40.75;99962.63;5116962;28;1142;-26
2021/07/17 09:04:10;;;;;;;;;;;;;;;28.99;40.98;99970.75;5118147;28;763;-27
2021/07/17 09:06:35;;;;;;;;;;;;;;;28.95;41.14;99970.31;5117724;28;855;-23
2021/07/17 09:09:02;;;;;;;;;;;;;;;29.02;41.04;99973.03;5118222;28;1905;-21
2021/07/17 09:11:40;;;;;;;;;;;;;;;29.11;40.98;99974.47;5116933;28;1017;-21
2021/07/17 09:14:06;;;;;;;;;;;;;;;29.18;40.85;99980.66;5118489;28;856;-23
2021/07/17 09:16:31;;;;;;;;;;;;;;;29.14;40.92;99976.75;5117736;28;923;-23
2021/07/17 09:18:57;;;;;;;;;;;;;;;29.12;40.93;99980.69;5117125;28;1408;-21
2021/07/17 09:21:33;;;;;;;;;;;;;;;29.03;40.88;99977.41;5118056;28;731;-25
2021/07/17 09:24:02;;;;;;;;;;;;;;;28.99;41.30;99976.19;5117719;28;736;-24
2021/07/17 09:26:31;;;;;;;;;;;;;;;28.99;41.15;99971.59;5117259;28;946;-22
2021/07/17 09:29:00;;;;;;;;;;;;;;;29.03;41.17;99970.09;5118172;28;1975;-21
2021/07/17 09:31:26;;;;;;;;;;;;;;;29.15;40.68;99982.97;5118097;28;735;-23
2021/07/17 09:33:51;;;;;;;;;;;;;;;29.30;40.42;99969.13;5117749;28;794;-23
2021/07/17 09:36:18;;;;;;;;;;;;;;;29.19;40.59;99989.63;5117423;28;830;-21
2021/07/17 09:38:50;;;;;;;;;;;;;;;29.33;40.51;99976.84;5117476;28;791;-24
2021/07/17 09:41:16;;;;;;;;;;;;;;;29.30;40.73;99983.53;5117425;28;998;-21
2021/07/17 09:43:44;;;;;;;;;;;;;;;29.35;40.48;99988.28;5117754;28;743;-22
2021/07/17 09:46:17;;;;;;;;;;;;;;;29.31;40.74;99984.38;5117010;28;840;-22
2021/07/17 09:48:44;;;;;;;;;;;;;;;29.32;40.44;99981.44;5100642;28;1047;-22
2021/07/17 09:51:10;;;;;;;;;;;;;;;29.36;40.46;99989.13;5096539;28;1976;-22
2021/07/17 09:53:38;;;;;;;;;;;;;;;29.35;40.63;99982.88;5096649;28;859;-23
2021/07/17 09:56:07;;;;;;;;;;;;;;;29.34;40.49;99981.22;5096219;28;920;-24
2021/07/17 09:58:33;;;;;;;;;;;;;;;29.37;40.41;99982.66;5097436;28;736;-21
2021/07/17 10:01:11;;;;;;;;;;;;;;;29.52;40.47;99977.78;5096601;28;828;-22
2021/07/17 10:03:36;;;;;;;;;;;;;;;29.69;39.81;99974.56;5096138;28;1500;-21
2021/07/17 10:06:02;;;;;;;;;;;;;;;29.75;39.55;99972.84;5096826;28;918;-20
2021/07/17 10:08:27;;;;;;;;;;;;;;;29.80;39.45;99975.72;5096877;28;788;-25
2021/07/17 10:10:59;;;;;;;;;;;;;;;29.83;39.46;99983.41;5078377;28;1969;-20
2021/07/17 10:13:27;;;;;;;;;;;;;;;29.91;39.18;99972.28;5096969;28;827;-27
2021/07/17 10:15:52;;;;;;;;;;;;;;;29.92;39.25;99973.13;5096515;28;775;-21
2021/07/17 10:18:25;;;;;;;;;;;;;;;29.92;39.23;99986.69;5096170;28;1400;-20
2021/07/17 10:20:51;;;;;;;;;;;;;;;29.94;39.12;99976.47;5079970;28;805;-21
2021/07/17 10:23:16;;;;;;;;;;;;;;;30.00;39.08;99983.72;5096797;28;811;-21
2021/07/17 10:25:41;;;;;;;;;;;;;;;30.07;38.95;99980.94;5096998;28;999;-22
2021/07/17 10:28:07;;;;;;;;;;;;;;;30.06;38.92;99990.13;5096498;28;994;-21
2021/07/17 10:30:33;;;;;;;;;;;;;;;30.09;38.69;99975.28;5096736;28;1893;-22
2021/07/17 10:32:58;;;;;;;;;;;;;;;30.09;38.77;99975.28;5078558;28;851;-22
2021/07/17 10:35:23;;;;;;;;;;;;;;;30.14;38.64;99983.59;5078652;28;793;-25
2021/07/17 10:37:49;;;;;;;;;;;;;;;30.19;38.39;99984.59;5096255;28;744;-24
2021/07/17 10:40:17;;;;;;;;;;;;;;;30.22;38.30;99980.63;5096466;28;806;-24
2021/07/17 10:42:47;;;;;;;;;;;;;;;30.27;38.36;99988.94;5077238;28;1006;-22
2021/07/17 10:45:24;;;;;;;;;;;;;;;30.25;38.36;99980.19;5079004;28;847;-25
2021/07/17 10:47:52;;;;;;;;;;;;;;;30.30;38.21;99980.34;5086542;28;1257;-21
2021/07/17 10:50:17;;;;;;;;;;;;;;;30.34;38.24;99978.03;5117011;28;1983;-21
2021/07/17 10:52:43;;;;;;;;;;;;;;;30.33;38.28;99976.34;5098533;28;1337;-23
2021/07/17 10:55:24;;;;;;;;;;;;;;;30.33;38.08;99970.09;5116370;28;827;-26
2021/07/17 10:57:49;;;;;;;;;;;;;;;30.34;38.25;99963.63;5115996;28;950;-23
2021/07/17 11:00:33;;;;;;;;;;;;;;;30.37;38.02;99960.44;5120049;28;852;-23
2021/07/17 11:03:21;;;;;;;;;;;;;;;30.40;38.14;99965.44;5120760;28;855;-21
2021/07/17 11:05:47;;;;;;;;;;;;;;;30.41;38.10;99967.91;5107401;28;1776;-22
2021/07/17 11:08:32;;;;;;;;;;;;;;;30.43;38.13;99963.09;5120283;28;763;-22
2021/07/17 11:10:58;;;;;;;;;;;;;;;30.47;37.98;99968.91;5118755;28;1966;-24
2021/07/17 11:13:34;;;;;;;;;;;;;;;30.51;38.02;99964.69;5120599;28;812;-22
2021/07/17 11:15:59;;;;;;;;;;;;;;;30.53;37.95;99969.91;5120304;28;708;-26
2021/07/17 11:18:25;;;;;;;;;;;;;;;30.56;37.77;99964.03;5120287;28;797;-25
2021/07/17 11:20:58;;;;;;;;;;;;;;;30.54;37.82;99966.13;5120306;28;797;-25
2021/07/17 11:23:23;;;;;;;;;;;;;;;30.61;37.63;99957.91;5120473;28;817;-21
2021/07/17 11:25:55;;;;;;;;;;;;;;;30.58;37.74;99963.78;5119380;28;1086;-21
2021/07/17 11:28:57;;;;;;;;;;;;;;;30.60;37.65;99959.78;5120235;28;846;-25
2021/07/17 11:31:37;;;;;;;;;;;;;;;30.59;37.63;99960.00;5077429;28;1550;-24
2021/07/17 11:34:16;;;;;;;;;;;;;;;30.60;37.86;99961.66;5119597;28;907;-25
2021/07/17 11:36:42;;;;;;;;;;;;;;;30.63;37.64;99962.03;5120047;28;794;-27
2021/07/17 11:39:08;;;;;;;;;;;;;;;30.65;37.78;99959.09;5119532;28;846;-24
2021/07/17 11:41:33;;;;;;;;;;;;;;;30.43;37.64;99956.81;5112871;28;954;-24
2021/07/17 11:43:59;;;;;;;;;;;;;;;30.16;38.57;99948.94;5099364;28;519;-24
2021/07/17 11:46:24;;;;;;;;;;;;;;;30.05;38.73;99956.75;5098933;28;1044;-24
2021/07/17 11:49:05;;;;;;;;;;;;;;;29.82;39.10;99952.78;5081605;28;1098;-24
2021/07/17 11:51:31;;;;;;;;;;;;;;;29.74;39.78;99953.06;5087588;28;1193;-27
2021/07/17 11:53:56;;;;;;;;;;;;;;;29.59;40.14;99956.09;5099261;28;897;-24
2021/07/17 11:56:21;;;;;;;;;;;;;;;29.58;40.21;99960.63;5098742;28;903;-23
2021/07/17 11:58:47;;;;;;;;;;;;;;;29.42;40.35;99966.56;5098781;28;843;-24
2021/07/17 12:01:14;;;;;;;;;;;;;;;29.41;40.29;99952.19;5098753;28;846;-25
2021/07/17 12:03:41;;;;;;;;;;;;;;;29.53;40.27;99959.66;5099155;28;789;-19
2021/07/17 12:06:06;;;;;;;;;;;;;;;29.49;39.83;99964.66;5098735;28;827;-20
2021/07/17 12:08:31;;;;;;;;;;;;;;;29.33;39.97;99960.56;5098731;28;851;-25
2021/07/17 12:10:57;;;;;;;;;;;;;;;29.41;39.99;99960.31;5097687;28;1901;-25
2021/07/17 12:13:22;;;;;;;;;;;;;;;29.39;39.80;99958.88;5098402;28;823;-22
2021/07/17 12:15:48;;;;;;;;;;;;;;;29.34;40.27;99971.19;5098707;28;825;-20
2021/07/17 12:18:13;;;;;;;;;;;;;;;29.34;40.37;99954.13;5098669;28;756;-24
2021/07/17 12:20:45;;;;;;;;;;;;;;;29.31;40.03;99957.28;5098579;28;884;-25
2021/07/17 12:23:16;;;;;;;;;;;;;;;29.52;40.02;99955.25;5098576;28;764;-21
2021/07/17 12:25:43;;;;;;;;;;;;;;;29.54;39.42;99956.72;5098067;28;907;-19
2021/07/17 12:28:12;;;;;;;;;;;;;;;29.44;39.68;99956.38;5078313;28;998;-20
2021/07/17 12:30:43;;;;;;;;;;;;;;;29.39;40.08;99957.03;5077351;28;1897;-20
2021/07/17 12:33:09;;;;;;;;;;;;;;;29.26;40.04;99955.19;5078302;28;758;-23
2021/07/17 12:35:34;;;;;;;;;;;;;;;29.19;39.97;99954.41;5078415;28;823;-24
2021/07/17 12:38:12;;;;;;;;;;;;;;;29.14;40.29;99952.38;5077636;28;875;-25
2021/07/17 12:40:45;;;;;;;;;;;;;;;29.09;40.49;99950.28;5077883;28;844;-19
2021/07/17 12:43:11;;;;;;;;;;;;;;;29.16;41.09;99957.56;5059679;28;843;-25
2021/07/17 12:45:36;;;;;;;;;;;;;;;29.50;39.09;99957.34;5078012;28;863;-20
2021/07/17 12:48:01;;;;;;;;;;;;;;;29.76;37.91;99955.53;5077334;28;1296;-24
2021/07/17 12:50:26;;;;;;;;;;;;;;;29.74;37.81;99957.66;5094436;28;1914;-20
2021/07/17 12:53:11;;;;;;;;;;;;;;;29.78;37.86;99953.47;5098172;28;1249;-26
2021/07/17 12:55:45;;;;;;;;;;;;;;;29.70;38.11;99958.09;5080164;28;783;-20
2021/07/17 12:58:11;;;;;;;;;;;;;;;29.66;37.72;99953.34;5077540;28;748;-20